Time;durP1;ratioP1;P1;durP2;ratioP2;P2;SDS_P1;SDS_P2;PMS_P1;PMS_P2;Temp;Humidity;BMP_temperature;BMP_pressure;BME280_temperature;BME280_humidity;BME280_pressure;Samples;Min_cycle;Max_cycle;Signal;HPM_P1;HPM_P2
2022/07/09 00:00:21;;;;;;;2.63;1.95;;;22.00;62.10;;;;;;6215932;23;20001;-73
2022/07/09 00:02:47;;;;;;;3.40;1.83;;;22.00;62.20;;;;;;6189555;23;20068;-73
2022/07/09 00:05:13;;;;;;;2.05;1.85;;;21.90;62.20;;;;;;6215889;23;20341;-73
2022/07/09 00:07:39;;;;;;;2.20;2.00;;;21.90;62.20;;;;;;6215639;23;20005;-73
2022/07/09 00:10:05;;;;;;;2.10;1.90;;;21.90;62.20;;;;;;6216150;23;20048;-73
2022/07/09 00:12:31;;;;;;;2.78;2.00;;;21.90;62.20;;;;;;6189427;23;20007;-73
2022/07/09 00:14:56;;;;;;;2.78;2.00;;;21.90;62.20;;;;;;6215887;23;20000;-73
2022/07/09 00:17:22;;;;;;;3.10;2.30;;;21.90;62.20;;;;;;6189393;23;20012;-73
2022/07/09 00:19:48;;;;;;;3.03;2.22;;;21.90;62.20;;;;;;6215958;23;20028;-73
2022/07/09 00:22:13;;;;;;;2.83;2.30;;;21.90;62.20;;;;;;6189266;23;20341;-73
2022/07/09 00:24:39;;;;;;;1.98;1.77;;;21.90;62.20;;;;;;6215715;23;20004;-73
2022/07/09 00:27:05;;;;;;;2.55;1.88;;;21.90;62.20;;;;;;6189249;23;20425;-73
2022/07/09 00:29:31;;;;;;;2.55;2.03;;;21.90;62.30;;;;;;6215619;23;20004;-73
2022/07/09 00:31:56;;;;;;;3.10;2.10;;;21.90;62.30;;;;;;6215780;23;20428;-73
2022/07/09 00:34:22;;;;;;;3.58;2.20;;;21.90;62.30;;;;;;6215490;23;20503;-73
2022/07/09 00:36:47;;;;;;;2.47;2.10;;;21.90;62.30;;;;;;6164092;23;20004;-73
2022/07/09 00:39:13;;;;;;;2.22;2.03;;;21.90;62.30;;;;;;6188917;23;20016;-73
2022/07/09 00:41:39;;;;;;;2.92;2.10;;;21.80;62.30;;;;;;6189206;23;20009;-73
2022/07/09 00:44:04;;;;;;;4.45;2.28;;;21.80;62.40;;;;;;6189283;23;20008;-73
2022/07/09 00:46:30;;;;;;;2.78;2.10;;;21.80;62.30;;;;;;6215485;23;20075;-73
2022/07/09 00:48:55;;;;;;;3.35;2.30;;;21.80;62.30;;;;;;6188865;23;20067;-73
2022/07/09 00:51:21;;;;;;;2.92;2.35;;;21.80;62.20;;;;;;6189254;23;20024;-73
2022/07/09 00:53:47;;;;;;;2.85;2.30;;;21.80;62.30;;;;;;6164170;23;20004;-73
2022/07/09 00:56:13;;;;;;;2.65;2.38;;;21.80;62.30;;;;;;6164502;23;20009;-73
2022/07/09 00:58:38;;;;;;;3.25;2.65;;;21.80;62.20;;;;;;6164244;23;19997;-73
2022/07/09 01:01:04;;;;;;;2.35;2.15;;;21.80;62.20;;;;;;6189171;23;20000;-73
2022/07/09 01:03:30;;;;;;;3.28;2.70;;;21.80;62.20;;;;;;6188430;23;20005;-73
2022/07/09 01:05:58;;;;;;;3.22;2.40;;;21.80;62.40;;;;;;6188605;23;20000;-73
2022/07/09 01:08:24;;;;;;;5.70;2.90;;;21.80;62.20;;;;;;6189321;23;20060;-73
2022/07/09 01:10:50;;;;;;;2.97;2.67;;;21.80;62.20;;;;;;6189091;23;20000;-73
2022/07/09 01:13:16;;;;;;;3.03;2.63;;;21.80;62.30;;;;;;6164086;23;20361;-73
2022/07/09 01:15:41;;;;;;;3.78;2.90;;;21.80;62.40;;;;;;6188813;23;20400;-73
2022/07/09 01:18:11;;;;;;;2.83;2.55;;;21.80;62.40;;;;;;6215457;23;20075;-73
2022/07/09 01:20:36;;;;;;;3.20;2.42;;;21.70;62.40;;;;;;6188476;23;20027;-73
2022/07/09 01:23:02;;;;;;;3.10;2.75;;;21.80;62.40;;;;;;6215218;23;20445;-73
2022/07/09 01:25:35;;;;;;;3.42;2.90;;;21.80;62.40;;;;;;6188605;23;20008;-73
2022/07/09 01:28:01;;;;;;;4.10;3.05;;;21.80;62.40;;;;;;6189480;23;20005;-73
2022/07/09 01:30:27;;;;;;;3.25;3.00;;;21.70;62.50;;;;;;6163870;23;20333;-73
2022/07/09 01:32:53;;;;;;;3.55;2.92;;;21.70;62.40;;;;;;6188833;23;20005;-73
2022/07/09 01:35:19;;;;;;;3.45;3.15;;;21.70;62.50;;;;;;6188548;23;20441;-73
2022/07/09 01:37:45;;;;;;;3.38;2.90;;;21.70;62.50;;;;;;6214884;23;20008;-73
2022/07/09 01:40:11;;;;;;;5.15;3.03;;;21.70;62.50;;;;;;6163752;23;20016;-73
2022/07/09 01:42:37;;;;;;;4.47;3.10;;;21.70;62.50;;;;;;6163610;23;20341;-73
2022/07/09 01:45:03;;;;;;;3.42;2.85;;;21.70;62.50;;;;;;6214997;23;20004;-73
2022/07/09 01:47:28;;;;;;;3.35;3.05;;;21.70;62.60;;;;;;6163761;23;20013;-73
2022/07/09 01:49:55;;;;;;;3.33;2.60;;;21.70;62.60;;;;;;6214689;23;20020;-73
2022/07/09 01:52:21;;;;;;;4.18;3.45;;;21.70;62.70;;;;;;6188763;23;20011;-73
2022/07/09 01:54:46;;;;;;;3.60;3.30;;;21.70;62.60;;;;;;6215063;23;20315;-73
2022/07/09 01:57:12;;;;;;;3.40;3.00;;;21.70;62.70;;;;;;6214986;23;20009;-73
2022/07/09 01:59:38;;;;;;;4.55;3.45;;;21.70;62.70;;;;;;6188394;23;20007;-73
2022/07/09 02:02:05;;;;;;;4.10;3.55;;;21.70;62.70;;;;;;6214921;23;20012;-73
2022/07/09 02:04:31;;;;;;;3.40;3.10;;;21.70;62.70;;;;;;6214583;23;20026;-73
2022/07/09 02:06:56;;;;;;;3.50;3.20;;;21.70;62.70;;;;;;6188294;23;20433;-73
2022/07/09 02:09:22;;;;;;;3.42;2.92;;;21.70;62.70;;;;;;6214929;23;20032;-73
2022/07/09 02:11:48;;;;;;;3.88;3.42;;;21.70;62.70;;;;;;6188344;23;20413;-73
2022/07/09 02:14:14;;;;;;;4.10;3.78;;;21.70;62.70;;;;;;6188482;23;20004;-73
2022/07/09 02:16:39;;;;;;;4.35;3.65;;;21.60;62.70;;;;;;6187867;23;20007;-73
2022/07/09 02:19:06;;;;;;;4.40;3.55;;;21.70;62.90;;;;;;6214522;23;20337;-73
2022/07/09 02:21:32;;;;;;;4.47;3.97;;;21.60;62.70;;;;;;6214739;23;20004;-73
2022/07/09 02:23:58;;;;;;;5.10;3.75;;;21.60;62.80;;;;;;6188222;23;20085;-73
2022/07/09 02:26:28;;;;;;;4.05;3.65;;;21.60;62.80;;;;;;6214634;23;20005;-73
2022/07/09 02:28:55;;;;;;;3.97;3.17;;;21.60;62.70;;;;;;6164101;23;20024;-73
2022/07/09 02:31:20;;;;;;;4.05;3.70;;;21.60;62.80;;;;;;6188132;23;20488;-73
2022/07/09 02:33:46;;;;;;;4.13;3.72;;;21.60;62.80;;;;;;6188231;23;20040;-73
2022/07/09 02:36:12;;;;;;;4.55;3.72;;;21.60;62.80;;;;;;6214651;23;19996;-73
2022/07/09 02:38:37;;;;;;;3.83;3.42;;;21.60;62.80;;;;;;6214232;23;20013;-73
2022/07/09 02:41:03;;;;;;;3.47;3.17;;;21.60;62.90;;;;;;6188114;23;20005;-73
2022/07/09 02:43:29;;;;;;;3.90;3.47;;;21.60;62.80;;;;;;6188295;23;20005;-73
2022/07/09 02:45:55;;;;;;;4.20;3.58;;;21.60;62.80;;;;;;6188094;23;20031;-73
2022/07/09 02:48:25;;;;;;;4.57;4.00;;;21.60;62.90;;;;;;6187944;23;20392;-73
2022/07/09 02:50:51;;;;;;;4.32;3.92;;;21.60;62.90;;;;;;6188721;23;19997;-73
2022/07/09 02:53:16;;;;;;;4.10;3.70;;;21.50;62.90;;;;;;6214459;23;20024;-73
2022/07/09 02:55:42;;;;;;;4.40;3.50;;;21.50;62.80;;;;;;6188081;23;20341;-73
2022/07/09 02:58:08;;;;;;;4.28;3.63;;;21.60;62.80;;;;;;6188214;23;19993;-73
2022/07/09 03:00:33;;;;;;;4.40;3.70;;;21.60;62.80;;;;;;6214322;23;20083;-73
2022/07/09 03:02:59;;;;;;;4.88;3.42;;;21.50;62.80;;;;;;6214213;23;20087;-73
2022/07/09 03:05:25;;;;;;;4.00;3.60;;;21.50;62.70;;;;;;6214526;23;20000;-73
2022/07/09 03:07:50;;;;;;;3.78;3.35;;;21.50;62.80;;;;;;6163222;23;20001;-73
2022/07/09 03:10:16;;;;;;;4.28;3.83;;;21.50;62.80;;;;;;6214587;23;20008;-73
2022/07/09 03:12:41;;;;;;;5.43;3.75;;;21.50;62.80;;;;;;6214379;23;20001;-73
2022/07/09 03:15:08;;;;;;;4.45;3.65;;;21.50;62.90;;;;;;6214312;23;20023;-73
2022/07/09 03:17:34;;;;;;;5.45;3.80;;;21.50;62.90;;;;;;6187865;23;20027;-73
2022/07/09 03:20:00;;;;;;;3.60;3.28;;;21.50;62.90;;;;;;6187992;23;20508;-73
2022/07/09 03:22:25;;;;;;;3.92;3.50;;;21.40;62.90;;;;;;6214434;23;20039;-73
2022/07/09 03:24:51;;;;;;;3.78;3.45;;;21.40;62.90;;;;;;6163118;23;20005;-73
2022/07/09 03:27:17;;;;;;;4.45;3.95;;;21.40;63.00;;;;;;6215111;23;20009;-73
2022/07/09 03:29:42;;;;;;;4.30;3.90;;;21.40;63.00;;;;;;6216131;23;20000;-73
2022/07/09 03:32:08;;;;;;;5.80;4.07;;;21.40;63.00;;;;;;6189750;23;20330;-73
2022/07/09 03:34:33;;;;;;;4.10;3.70;;;21.40;63.00;;;;;;6216026;23;20345;-73
2022/07/09 03:36:59;;;;;;;4.25;3.55;;;21.40;62.90;;;;;;6189654;23;20468;-73
2022/07/09 03:39:25;;;;;;;4.35;3.13;;;21.40;62.90;;;;;;6215929;23;20058;-73
2022/07/09 03:41:51;;;;;;;3.88;3.30;;;21.40;62.90;;;;;;6189624;23;20000;-73
2022/07/09 03:44:17;;;;;;;3.90;3.55;;;21.40;62.90;;;;;;6164969;23;20346;-73
2022/07/09 03:46:43;;;;;;;4.80;3.72;;;21.40;63.00;;;;;;6189388;23;20097;-73
2022/07/09 03:49:09;;;;;;;3.90;3.40;;;21.40;63.00;;;;;;6164608;23;20031;-73
2022/07/09 03:51:34;;;;;;;4.50;3.58;;;21.40;63.00;;;;;;6215971;23;20000;-73
2022/07/09 03:54:00;;;;;;;3.75;3.40;;;21.40;63.00;;;;;;6216165;23;20027;-73
2022/07/09 03:56:26;;;;;;;4.20;3.72;;;21.40;62.90;;;;;;6216067;23;20068;-73
2022/07/09 03:58:51;;;;;;;4.40;3.60;;;21.40;63.00;;;;;;6216148;23;20000;-73
2022/07/09 04:01:17;;;;;;;4.68;3.92;;;21.40;62.90;;;;;;6164173;23;20000;-73
2022/07/09 04:03:42;;;;;;;3.67;3.38;;;21.40;62.90;;;;;;6189483;23;20071;-73
2022/07/09 04:06:08;;;;;;;4.60;3.60;;;21.40;63.00;;;;;;6216004;23;20007;-73
2022/07/09 04:08:34;;;;;;;4.13;3.70;;;21.40;63.00;;;;;;6215673;23;20007;-73
2022/07/09 04:11:00;;;;;;;4.00;3.70;;;21.30;62.90;;;;;;6189322;23;19997;-73
2022/07/09 04:13:25;;;;;;;4.00;3.70;;;21.30;62.90;;;;;;6215893;23;20000;-73
2022/07/09 04:15:51;;;;;;;3.75;3.38;;;21.40;62.90;;;;;;6189052;23;20072;-73
2022/07/09 04:18:17;;;;;;;4.32;3.65;;;21.30;62.90;;;;;;6189331;23;20004;-73
2022/07/09 04:20:42;;;;;;;6.05;4.00;;;21.30;62.90;;;;;;6215700;23;20004;-73
2022/07/09 04:23:08;;;;;;;4.75;4.18;;;21.30;62.90;;;;;;6189291;23;20345;-73
2022/07/09 04:25:34;;;;;;;4.05;3.65;;;21.30;62.90;;;;;;6189244;23;20004;-73
2022/07/09 04:27:59;;;;;;;4.82;4.00;;;21.30;62.90;;;;;;6189008;23;20090;-73
2022/07/09 04:30:26;;;;;;;5.18;4.20;;;21.30;62.90;;;;;;6215316;23;20001;-73
2022/07/09 04:32:52;;;;;;;5.07;4.07;;;21.30;62.90;;;;;;6215684;23;20001;-73
2022/07/09 04:35:18;;;;;;;4.85;4.35;;;21.30;62.90;;;;;;6164284;23;20323;-73
2022/07/09 04:37:44;;;;;;;4.18;3.78;;;21.30;62.90;;;;;;6215373;23;20095;-73
2022/07/09 04:40:10;;;;;;;4.05;3.50;;;21.30;62.90;;;;;;6188850;23;20020;-73
2022/07/09 04:42:35;;;;;;;4.38;3.92;;;21.30;62.90;;;;;;6215432;23;20072;-73
2022/07/09 04:45:01;;;;;;;4.03;3.63;;;21.30;62.90;;;;;;6215344;23;20078;-73
2022/07/09 04:47:27;;;;;;;3.38;3.08;;;21.30;62.90;;;;;;6215435;23;20008;-73
2022/07/09 04:49:52;;;;;;;3.60;3.30;;;21.30;62.90;;;;;;6215402;23;20095;-73
2022/07/09 04:52:19;;;;;;;3.40;3.10;;;21.20;62.80;;;;;;6215615;23;20024;-73
2022/07/09 04:54:45;;;;;;;3.05;2.85;;;21.30;62.90;;;;;;6215597;23;19997;-73
2022/07/09 04:57:11;;;;;;;3.10;2.90;;;21.30;62.80;;;;;;6188958;23;20027;-73
2022/07/09 04:59:37;;;;;;;3.80;3.50;;;21.20;62.70;;;;;;6188697;23;20341;-73
2022/07/09 05:02:02;;;;;;;3.25;3.00;;;21.30;62.70;;;;;;6215496;23;20075;-73
2022/07/09 05:04:28;;;;;;;3.70;3.40;;;21.20;62.60;;;;;;6215448;23;20460;-73
2022/07/09 05:06:54;;;;;;;4.00;3.70;;;21.30;62.50;;;;;;6188735;23;20004;-73
2022/07/09 05:09:19;;;;;;;3.65;3.25;;;21.20;62.50;;;;;;6215487;23;20337;-73
2022/07/09 05:11:45;;;;;;;3.20;3.00;;;21.20;62.50;;;;;;6215250;23;20487;-73
2022/07/09 05:14:11;;;;;;;3.10;2.80;;;21.20;62.50;;;;;;6215376;23;19997;-73
2022/07/09 05:16:36;;;;;;;3.40;3.20;;;21.20;62.50;;;;;;6215123;23;19997;-73
2022/07/09 05:19:02;;;;;;;3.10;2.90;;;21.20;62.60;;;;;;6215368;23;20023;-73
2022/07/09 05:21:28;;;;;;;2.90;2.70;;;21.20;62.50;;;;;;6188854;23;19996;-73
2022/07/09 05:23:53;;;;;;;2.90;2.70;;;21.20;62.60;;;;;;6215298;23;20054;-73
2022/07/09 05:26:19;;;;;;;2.90;2.70;;;21.20;62.70;;;;;;6215092;23;20001;-73
2022/07/09 05:28:45;;;;;;;2.85;2.65;;;21.20;62.70;;;;;;6215214;23;20008;-73
2022/07/09 05:31:10;;;;;;;3.00;2.80;;;21.20;62.60;;;;;;6163662;23;20000;-73
2022/07/09 05:33:37;;;;;;;3.00;2.80;;;21.20;62.60;;;;;;6215185;23;20499;-73
2022/07/09 05:36:03;;;;;;;2.58;2.38;;;21.20;62.50;;;;;;6215011;23;20029;-73
2022/07/09 05:38:29;;;;;;;2.90;2.70;;;21.20;62.50;;;;;;6214716;23;20076;-73
2022/07/09 05:40:54;;;;;;;2.72;2.53;;;21.10;62.50;;;;;;6214811;23;20123;-73
2022/07/09 05:43:20;;;;;;;2.65;2.45;;;21.10;62.50;;;;;;6188798;23;20055;-73
2022/07/09 05:45:45;;;;;;;2.58;2.38;;;21.10;62.60;;;;;;6214982;23;20007;-73
2022/07/09 05:48:11;;;;;;;2.35;2.20;;;21.20;62.70;;;;;;6188621;23;20012;-73
2022/07/09 05:50:37;;;;;;;2.55;2.35;;;21.10;62.70;;;;;;6188493;23;20070;-73
2022/07/09 05:53:02;;;;;;;2.47;2.28;;;21.10;62.60;;;;;;6214973;23;20504;-73
2022/07/09 05:55:28;;;;;;;2.47;2.28;;;21.10;63.80;;;;;;6214772;23;20001;-73
2022/07/09 05:57:53;;;;;;;2.30;2.20;;;21.10;62.70;;;;;;6214954;23;20015;-73
2022/07/09 06:00:19;;;;;;;2.13;2.03;;;21.10;62.70;;;;;;6188528;23;20005;-73
2022/07/09 06:02:45;;;;;;;2.67;2.10;;;21.10;62.80;;;;;;6214908;23;20011;-73
2022/07/09 06:05:10;;;;;;;2.05;1.92;;;21.10;62.80;;;;;;6214744;23;20099;-73
2022/07/09 06:07:36;;;;;;;1.77;1.67;;;21.10;62.80;;;;;;6214708;23;20008;-73
2022/07/09 06:10:01;;;;;;;2.38;2.08;;;21.10;62.90;;;;;;6214714;23;20001;-73
2022/07/09 06:12:27;;;;;;;1.85;1.75;;;21.10;63.00;;;;;;6188463;23;20103;-73
2022/07/09 06:14:53;;;;;;;1.80;1.70;;;21.10;63.00;;;;;;6188263;23;20008;-73
2022/07/09 06:17:18;;;;;;;2.13;1.90;;;21.10;63.10;;;;;;6214881;23;20008;-73
2022/07/09 06:19:44;;;;;;;1.92;1.80;;;21.10;63.20;;;;;;6188202;23;20036;-73
2022/07/09 06:22:10;;;;;;;1.77;1.67;;;21.10;63.20;;;;;;6214894;23;20001;-73
2022/07/09 06:24:35;;;;;;;1.80;1.70;;;21.10;63.30;;;;;;6214420;23;20015;-73
2022/07/09 06:27:01;;;;;;;1.80;1.70;;;21.10;63.20;;;;;;6214528;23;20448;-73
2022/07/09 06:29:26;;;;;;;1.77;1.67;;;21.10;63.30;;;;;;6188307;23;20005;-73
2022/07/09 06:31:52;;;;;;;1.73;1.63;;;21.10;63.30;;;;;;6214539;23;20007;-73
2022/07/09 06:34:18;;;;;;;2.55;1.70;;;21.10;63.40;;;;;;6188363;23;20007;-73
2022/07/09 06:36:44;;;;;;;1.55;1.40;;;21.10;63.40;;;;;;6214850;23;20012;-73
2022/07/09 06:42:00;;;;;;;1.10;1.10;;;21.10;63.50;;;;;;6214650;23;20039;-73
2022/07/09 06:44:26;;;;;;;1.38;1.30;;;21.10;63.50;;;;;;6187973;23;20066;-73
2022/07/09 06:46:51;;;;;;;1.33;1.25;;;21.10;63.50;;;;;;6214397;23;20008;-73
2022/07/09 06:49:17;;;;;;;1.30;1.20;;;21.10;63.50;;;;;;6214679;23;20027;-73
2022/07/09 06:51:43;;;;;;;1.38;1.27;;;21.10;63.50;;;;;;6214541;23;20577;-73
2022/07/09 06:54:09;;;;;;;1.30;1.20;;;21.20;63.60;;;;;;6214485;23;20000;-73
2022/07/09 06:56:35;;;;;;;1.85;1.30;;;21.10;63.50;;;;;;6188107;23;20011;-73
2022/07/09 06:59:00;;;;;;;1.95;1.80;;;21.10;63.60;;;;;;6188094;23;20074;-73
2022/07/09 07:01:26;;;;;;;1.60;1.50;;;21.10;63.80;;;;;;6214836;23;20374;-73
2022/07/09 07:03:51;;;;;;;1.27;1.20;;;21.10;63.90;;;;;;6189866;23;20015;-73
2022/07/09 07:06:17;;;;;;;3.33;1.40;;;21.10;64.10;;;;;;6216440;23;20001;-73
2022/07/09 07:08:43;;;;;;;1.65;1.40;;;21.10;64.00;;;;;;6216297;23;20082;-73
2022/07/09 07:11:08;;;;;;;1.52;1.35;;;21.20;64.00;;;;;;6189681;23;20533;-73
2022/07/09 07:13:34;;;;;;;2.20;1.52;;;21.10;64.00;;;;;;6189844;23;20451;-73
2022/07/09 07:15:59;;;;;;;1.75;1.60;;;21.10;64.00;;;;;;6216320;23;20072;-73
2022/07/09 07:18:25;;;;;;;2.28;1.88;;;21.20;64.00;;;;;;6216470;23;20080;-73
2022/07/09 07:20:51;;;;;;;3.00;1.77;;;21.20;64.40;;;;;;6216421;23;20007;-73
2022/07/09 07:23:16;;;;;;;2.53;2.00;;;21.20;65.50;;;;;;6215889;23;20004;-73
2022/07/09 07:25:42;;;;;;;2.95;1.63;;;21.10;64.60;;;;;;6216355;23;20006;-73
2022/07/09 07:28:07;;;;;;;1.65;1.55;;;21.20;64.70;;;;;;6216285;23;20368;-73
2022/07/09 07:30:33;;;;;;;3.65;1.80;;;21.20;64.70;;;;;;6216214;23;20349;-73
2022/07/09 07:33:00;;;;;;;1.70;1.60;;;21.10;64.80;;;;;;6216297;23;20441;-73
2022/07/09 07:35:26;;;;;;;1.70;1.60;;;21.20;64.90;;;;;;6189776;23;20007;-73
2022/07/09 07:37:51;;;;;;;3.50;1.70;;;21.20;64.50;;;;;;6189276;23;20087;-73
2022/07/09 07:40:17;;;;;;;2.00;1.55;;;21.20;64.50;;;;;;6216115;23;20058;-73
2022/07/09 07:42:43;;;;;;;1.55;1.45;;;21.20;64.60;;;;;;6189742;23;20001;-73
2022/07/09 07:45:09;;;;;;;1.35;1.25;;;21.20;64.40;;;;;;6216161;23;20019;-73
2022/07/09 07:47:35;;;;;;;1.25;1.15;;;21.20;64.30;;;;;;6189352;23;20062;-73
2022/07/09 07:50:01;;;;;;;2.47;1.52;;;21.20;64.60;;;;;;6164868;23;20036;-73
2022/07/09 07:52:26;;;;;;;2.28;1.70;;;21.20;65.10;;;;;;6215809;23;20004;-73
2022/07/09 07:54:52;;;;;;;2.75;1.50;;;21.20;65.10;;;;;;6189556;23;20007;-73
2022/07/09 07:57:18;;;;;;;2.30;1.25;;;21.20;65.10;;;;;;6215883;23;20004;-73
2022/07/09 07:59:43;;;;;;;0.93;0.82;;;21.20;64.80;;;;;;6216133;23;20004;-73
2022/07/09 08:02:09;;;;;;;1.10;1.10;;;21.20;64.50;;;;;;6215939;23;20001;-73
2022/07/09 08:04:34;;;;;;;1.20;1.10;;;21.20;64.50;;;;;;6189422;23;20012;-73
2022/07/09 08:07:00;;;;;;;0.85;0.85;;;21.20;64.60;;;;;;6189114;23;20004;-73
2022/07/09 08:09:26;;;;;;;2.70;1.38;;;21.20;64.80;;;;;;6189729;23;19997;-73
2022/07/09 08:11:52;;;;;;;1.20;1.20;;;21.20;64.80;;;;;;6189256;23;20004;-73
2022/07/09 08:14:17;;;;;;;3.00;1.05;;;21.20;64.90;;;;;;6215145;23;20438;-73
2022/07/09 08:16:43;;;;;;;1.00;1.00;;;21.20;64.90;;;;;;6189540;23;20091;-73
2022/07/09 08:19:08;;;;;;;1.02;1.00;;;21.20;64.70;;;;;;6215819;23;20031;-73
2022/07/09 08:21:34;;;;;;;0.88;0.88;;;21.30;64.70;;;;;;6215592;23;20004;-73
2022/07/09 08:24:04;;;;;;;1.02;0.88;;;21.30;64.70;;;;;;6189248;23;20508;-73
2022/07/09 08:26:29;;;;;;;1.30;0.93;;;21.30;64.50;;;;;;6215609;23;20007;-73
2022/07/09 08:28:56;;;;;;;1.10;1.00;;;21.30;64.50;;;;;;6215697;23;20001;-73
2022/07/09 08:31:22;;;;;;;1.55;1.30;;;21.30;64.60;;;;;;6189517;23;20068;-73
2022/07/09 08:33:48;;;;;;;1.00;1.00;;;21.30;65.00;;;;;;6189222;23;20456;-73
2022/07/09 08:36:13;;;;;;;1.50;1.08;;;21.30;65.20;;;;;;6189016;23;20059;-73
2022/07/09 08:38:39;;;;;;;1.35;1.00;;;21.30;65.20;;;;;;6188959;23;20019;-73
2022/07/09 08:41:07;;;;;;;2.05;1.25;;;21.30;65.30;;;;;;6164115;23;20004;-73
2022/07/09 08:43:34;;;;;;;1.67;1.30;;;21.30;65.40;;;;;;6165424;23;20075;-73
2022/07/09 08:45:59;;;;;;;2.15;1.35;;;21.30;65.20;;;;;;6189247;23;20028;-73
2022/07/09 08:48:25;;;;;;;0.90;0.90;;;21.30;65.00;;;;;;6188987;23;20385;-73
2022/07/09 08:50:51;;;;;;;1.08;1.08;;;21.30;65.00;;;;;;6188874;23;20000;-73
2022/07/09 08:53:18;;;;;;;1.60;1.00;;;21.30;65.00;;;;;;6215368;23;20001;-73
2022/07/09 08:55:46;;;;;;;2.53;1.10;;;21.30;64.90;;;;;;6189275;23;20000;-73
2022/07/09 08:58:13;;;;;;;1.00;1.00;;;21.30;65.00;;;;;;6189611;23;20008;-73
2022/07/09 09:00:40;;;;;;;2.15;1.20;;;21.30;64.90;;;;;;6189148;23;20007;-73
2022/07/09 09:03:05;;;;;;;1.23;1.10;;;21.30;64.90;;;;;;6188838;23;20005;-73
2022/07/09 09:05:31;;;;;;;1.40;1.17;;;21.30;64.90;;;;;;6163966;23;20039;-73
2022/07/09 09:07:57;;;;;;;2.00;1.17;;;21.40;65.00;;;;;;6215207;23;20348;-73
2022/07/09 09:10:27;;;;;;;1.00;0.93;;;21.40;65.20;;;;;;6215450;23;20001;-73
2022/07/09 09:13:00;;;;;;;0.93;0.85;;;21.40;65.30;;;;;;6189032;23;20449;-73
2022/07/09 09:15:26;;;;;;;1.83;1.20;;;21.40;65.30;;;;;;6164393;23;20003;-73
2022/07/09 09:17:52;;;;;;;1.80;1.13;;;21.40;65.50;;;;;;6163897;23;20004;-73
2022/07/09 09:20:17;;;;;;;2.47;1.30;;;21.40;65.70;;;;;;6215051;23;20315;-73
2022/07/09 09:22:47;;;;;;;1.70;1.08;;;21.40;65.70;;;;;;6188600;23;20472;-73
2022/07/09 09:25:20;;;;;;;1.60;1.23;;;21.40;65.60;;;;;;6215019;23;20010;-73
2022/07/09 09:27:58;;;;;;;1.83;0.95;;;21.40;65.60;;;;;;6215019;23;20055;-73
2022/07/09 09:30:25;;;;;;;2.05;1.33;;;21.40;65.50;;;;;;6164541;23;20024;-73
2022/07/09 09:33:00;;;;;;;1.20;1.10;;;21.50;65.50;;;;;;6188613;23;20001;-73
2022/07/09 09:35:27;;;;;;;1.38;1.08;;;21.40;65.40;;;;;;6215190;23;20452;-73
2022/07/09 09:37:53;;;;;;;1.65;1.05;;;21.50;65.30;;;;;;6188580;23;20008;-73
2022/07/09 09:40:19;;;;;;;1.08;0.98;;;21.50;65.20;;;;;;6214712;23;20017;-73
2022/07/09 09:42:45;;;;;;;1.00;0.90;;;21.40;65.20;;;;;;6188640;23;20004;-73
2022/07/09 09:45:12;;;;;;;1.35;1.00;;;21.50;65.20;;;;;;6188605;23;20001;-73
2022/07/09 09:47:38;;;;;;;0.70;0.70;;;21.50;65.00;;;;;;6214989;23;20390;-73
2022/07/09 09:50:04;;;;;;;1.17;0.90;;;21.50;65.10;;;;;;6188386;23;20011;-73
2022/07/09 09:52:30;;;;;;;2.10;0.90;;;21.50;65.00;;;;;;6215075;23;20000;-73
2022/07/09 09:54:55;;;;;;;1.08;1.00;;;21.50;65.20;;;;;;6163492;23;20035;-73
2022/07/09 09:57:24;;;;;;;1.63;0.98;;;21.50;65.20;;;;;;6163915;23;20005;-73
2022/07/09 09:59:51;;;;;;;1.10;1.00;;;21.50;65.20;;;;;;6215028;23;20007;-73
2022/07/09 10:02:17;;;;;;;2.03;1.10;;;21.50;65.30;;;;;;6164050;23;20024;-73
2022/07/09 10:04:43;;;;;;;2.28;1.00;;;21.50;65.20;;;;;;6214852;23;20012;-73
2022/07/09 10:07:11;;;;;;;1.02;1.00;;;21.50;65.20;;;;;;6188250;23;20008;-73
2022/07/09 10:09:37;;;;;;;1.23;1.13;;;21.50;65.00;;;;;;6163689;23;20404;-73
2022/07/09 10:12:03;;;;;;;0.80;0.80;;;21.50;65.00;;;;;;6188521;23;20035;-73
2022/07/09 10:14:36;;;;;;;1.20;0.93;;;21.50;65.00;;;;;;6163781;23;20050;-73
2022/07/09 10:17:10;;;;;;;1.02;1.00;;;21.50;65.00;;;;;;6187914;23;20027;-73
2022/07/09 10:19:37;;;;;;;1.98;0.93;;;21.60;65.10;;;;;;6163907;23;20007;-73
2022/07/09 10:22:03;;;;;;;1.90;1.13;;;21.60;65.00;;;;;;6214884;23;20007;-73
2022/07/09 10:24:30;;;;;;;1.55;1.30;;;21.50;64.90;;;;;;6188212;23;20068;-73
2022/07/09 10:27:08;;;;;;;0.98;0.90;;;21.60;65.00;;;;;;6214612;23;20008;-73
2022/07/09 10:29:36;;;;;;;1.40;1.05;;;21.60;64.90;;;;;;6214507;23;20327;-73
2022/07/09 10:32:01;;;;;;;0.93;0.90;;;21.60;65.00;;;;;;6187977;23;20003;-73
2022/07/09 10:35:00;;;;;;;1.50;1.30;;;21.60;64.80;;;;;;6188357;23;19997;-73
2022/07/09 10:37:31;;;;;;;1.35;1.05;;;21.60;64.80;;;;;;6151114;23;20005;-73
2022/07/09 10:40:10;;;;;;;0.80;0.80;;;21.60;64.70;;;;;;6214311;23;20353;-73
2022/07/09 10:42:36;;;;;;;0.90;0.90;;;21.60;65.00;;;;;;6214795;23;20032;-73
2022/07/09 10:45:02;;;;;;;1.10;0.85;;;21.60;64.70;;;;;;6214441;23;20429;-73
2022/07/09 10:47:38;;;;;;;1.20;1.10;;;21.60;64.60;;;;;;6187835;23;20501;-73
2022/07/09 10:50:07;;;;;;;0.68;0.60;;;21.60;64.50;;;;;;6188449;23;20445;-73
2022/07/09 10:52:33;;;;;;;1.30;0.70;;;21.60;64.40;;;;;;6163704;23;20001;-73
2022/07/09 10:54:59;;;;;;;1.75;1.02;;;21.60;64.30;;;;;;6188244;23;20023;-73
2022/07/09 10:57:25;;;;;;;1.20;0.85;;;21.60;64.00;;;;;;6188164;23;20337;-73
2022/07/09 10:59:50;;;;;;;1.08;0.88;;;21.70;64.00;;;;;;6187766;23;20008;-73
2022/07/09 11:02:22;;;;;;;1.77;0.90;;;21.70;64.00;;;;;;6214680;23;20001;-73
2022/07/09 11:04:52;;;;;;;0.80;0.80;;;21.70;63.90;;;;;;6188205;23;20012;-73
2022/07/09 11:07:21;;;;;;;0.93;0.82;;;21.70;63.70;;;;;;6214408;23;20103;-73
2022/07/09 11:09:47;;;;;;;0.95;0.80;;;21.70;64.60;;;;;;6214377;23;19997;-73
2022/07/09 11:12:20;;;;;;;0.73;0.73;;;21.70;63.70;;;;;;6163345;23;20005;-73
2022/07/09 11:14:46;;;;;;;;;;;21.70;63.70;;;;;;6188453;23;20068;-73
2022/07/09 11:17:15;;;;;;;1.02;0.95;;;21.70;63.80;;;;;;6188005;23;19900;-73
2022/07/09 11:19:41;;;;;;;0.70;0.70;;;21.70;63.90;;;;;;6214532;23;20429;-73
2022/07/09 11:22:07;;;;;;;0.80;0.80;;;21.70;63.90;;;;;;6214522;23;20007;-73
2022/07/09 11:24:32;;;;;;;0.75;0.75;;;21.70;64.00;;;;;;6163008;23;20001;-73
2022/07/09 11:27:02;;;;;;;1.25;0.95;;;21.70;64.00;;;;;;6214636;23;20020;-73
2022/07/09 11:29:28;;;;;;;1.75;0.95;;;21.70;64.00;;;;;;6162926;23;20077;-73
2022/07/09 11:31:54;;;;;;;0.80;0.80;;;21.70;64.10;;;;;;6214408;23;20029;-73
2022/07/09 11:34:20;;;;;;;1.40;0.95;;;21.70;64.10;;;;;;6187999;23;20421;-73
2022/07/09 11:36:48;;;;;;;1.40;0.90;;;21.70;64.10;;;;;;6188444;23;20437;-73
2022/07/09 11:39:27;;;;;;;1.27;0.80;;;21.80;64.10;;;;;;6188074;23;20023;-73
2022/07/09 11:41:53;;;;;;;0.82;0.70;;;21.80;64.10;;;;;;6187871;23;20035;-73
2022/07/09 11:44:29;;;;;;;0.88;0.88;;;21.80;64.10;;;;;;6187758;23;20004;-73
2022/07/09 11:47:08;;;;;;;2.17;0.70;;;21.80;64.10;;;;;;6187605;23;20092;-73
2022/07/09 11:49:34;;;;;;;0.82;0.82;;;21.80;64.10;;;;;;6189755;23;20431;-73
2022/07/09 11:52:00;;;;;;;0.85;0.85;;;21.80;64.10;;;;;;6216064;23;20024;-73
2022/07/09 11:54:29;;;;;;;0.85;0.85;;;21.80;64.10;;;;;;6189504;23;20000;-73
2022/07/09 11:56:54;;;;;;;1.00;0.70;;;21.80;64.10;;;;;;6164822;23;20094;-73
2022/07/09 11:59:27;;;;;;;1.02;1.00;;;21.80;65.20;;;;;;6215791;23;20724;-73
2022/07/09 12:01:55;;;;;;;2.75;0.95;;;21.80;64.40;;;;;;6189718;23;20011;-73
2022/07/09 12:04:20;;;;;;;1.40;1.00;;;21.80;64.50;;;;;;6215909;23;20011;-73
2022/07/09 12:06:50;;;;;;;1.95;1.00;;;21.90;64.40;;;;;;6189489;23;20031;-73
2022/07/09 12:09:16;;;;;;;1.05;0.95;;;21.80;64.40;;;;;;6215807;23;20035;-73
2022/07/09 12:11:42;;;;;;;0.80;0.80;;;21.90;64.40;;;;;;6189486;23;20004;-73
2022/07/09 12:14:07;;;;;;;0.73;0.73;;;21.90;64.50;;;;;;6189343;23;20009;-73
2022/07/09 12:16:33;;;;;;;1.77;1.17;;;21.90;65.50;;;;;;6215805;23;20000;-73
2022/07/09 12:18:59;;;;;;;0.70;0.60;;;21.90;64.40;;;;;;6189337;23;20009;-73
2022/07/09 12:21:24;;;;;;;0.90;0.85;;;21.90;64.30;;;;;;6215847;23;20433;-73
2022/07/09 12:23:50;;;;;;;3.03;1.08;;;21.90;64.20;;;;;;6215919;23;20461;-73
2022/07/09 12:26:16;;;;;;;0.80;0.80;;;21.90;64.50;;;;;;6215837;23;20028;-73
2022/07/09 12:28:41;;;;;;;1.70;0.95;;;21.90;64.40;;;;;;6188941;23;20437;-73
2022/07/09 12:31:07;;;;;;;1.20;0.90;;;21.90;64.50;;;;;;6215604;23;20074;-73
2022/07/09 12:33:32;;;;;;;2.42;1.10;;;21.90;64.50;;;;;;6189391;23;20001;-73
2022/07/09 12:35:58;;;;;;;1.23;1.00;;;21.90;64.50;;;;;;6189532;23;20005;-73
2022/07/09 12:38:24;;;;;;;1.38;1.00;;;21.90;64.50;;;;;;6215363;23;20011;-73
2022/07/09 12:40:49;;;;;;;1.15;0.93;;;21.90;64.60;;;;;;6215874;23;20395;-73
2022/07/09 12:43:15;;;;;;;1.33;1.13;;;22.00;64.70;;;;;;6215345;23;20000;-73
2022/07/09 12:45:41;;;;;;;1.67;1.05;;;22.00;64.80;;;;;;6215864;23;20338;-73